createdAt,value
2022-08-26T00:00:47.833Z,50.15
2022-08-26T00:03:16.749Z,31.42
2022-08-26T00:05:45.267Z,49.88
2022-08-26T00:08:15.075Z,40.05
2022-08-26T00:10:44.409Z,47.20
2022-08-26T00:13:15.615Z,35.85
2022-08-26T00:15:47.259Z,36.20
2022-08-26T00:18:22.351Z,42.80
2022-08-26T00:20:50.550Z,34.40
2022-08-26T00:23:18.542Z,41.45
2022-08-26T00:25:47.643Z,43.00
2022-08-26T00:28:15.915Z,35.50
2022-08-26T00:30:51.607Z,31.75
2022-08-26T00:33:20.547Z,40.90
2022-08-26T00:35:48.444Z,36.33
2022-08-26T00:38:16.770Z,36.75
2022-08-26T00:40:47.546Z,41.15
2022-08-26T00:43:16.132Z,33.55
2022-08-26T00:46:02.351Z,44.10
2022-08-26T00:48:32.550Z,46.95
2022-08-26T00:51:12.047Z,37.08
2022-08-26T00:53:46.313Z,51.85
2022-08-26T00:56:36.632Z,37.60
2022-08-26T00:59:08.311Z,35.20
2022-08-26T01:01:38.280Z,38.88
2022-08-26T01:04:06.142Z,47.97
2022-08-26T01:06:33.325Z,38.83
2022-08-26T01:09:00.632Z,39.60
2022-08-26T01:11:28.625Z,39.63
2022-08-26T01:14:00.133Z,32.72
2022-08-26T01:16:27.378Z,35.45
2022-08-26T01:19:02.409Z,44.65
2022-08-26T01:21:47.060Z,47.20
2022-08-26T01:24:15.728Z,33.50
2022-08-26T01:26:44.901Z,44.80
2022-08-26T01:29:18.088Z,36.85
2022-08-26T01:31:50.637Z,46.80
2022-08-26T01:34:28.041Z,49.45
2022-08-26T01:37:03.667Z,52.70
2022-08-26T01:39:34.909Z,39.38
2022-08-26T01:42:03.917Z,43.63
2022-08-26T01:44:39.363Z,38.53
2022-08-26T01:47:09.766Z,42.67
2022-08-26T01:49:37.886Z,41.20
2022-08-26T01:52:07.857Z,51.95
2022-08-26T01:54:38.060Z,37.50
2022-08-26T01:57:05.719Z,33.58
2022-08-26T01:59:33.354Z,40.67
2022-08-26T02:02:08.139Z,41.97
2022-08-26T02:05:32.355Z,51.95
2022-08-26T02:08:50.547Z,40.05
2022-08-26T02:11:18.763Z,40.17
2022-08-26T02:13:54.726Z,40.25
2022-08-26T02:16:27.373Z,36.20
2022-08-26T02:19:16.855Z,36.75
2022-08-26T02:22:19.166Z,43.17
2022-08-26T02:25:37.526Z,51.78
2022-08-26T02:31:16.880Z,47.55
2022-08-26T02:38:03.199Z,42.28
2022-08-26T03:01:38.206Z,41.88
2022-08-26T03:48:31.520Z,57.42
2022-08-26T03:50:59.109Z,54.60
2022-08-26T03:53:27.049Z,46.20
2022-08-26T03:55:55.418Z,49.67
2022-08-26T03:58:24.719Z,49.30
2022-08-26T04:00:55.923Z,51.40
2022-08-26T04:03:43.336Z,43.35
2022-08-26T04:06:11.035Z,36.95
2022-08-26T04:08:38.819Z,39.72
2022-08-26T04:11:09.224Z,45.22
2022-08-26T04:16:05.954Z,44.53
2022-08-26T04:18:37.241Z,45.22
2022-08-26T04:21:08.556Z,45.50
2022-08-26T04:23:47.249Z,42.90
2022-08-26T04:26:18.593Z,46.15
2022-08-26T04:28:48.478Z,44.28
2022-08-26T04:31:17.757Z,43.80
2022-08-26T04:33:53.657Z,44.20
2022-08-26T04:36:21.737Z,43.65
2022-08-26T04:38:52.209Z,39.33
2022-08-26T04:41:21.467Z,50.13
2022-08-26T04:43:49.134Z,40.67
2022-08-26T04:46:20.059Z,49.42
2022-08-26T04:48:52.112Z,50.00
2022-08-26T04:51:30.356Z,43.55
2022-08-26T04:53:59.366Z,42.95
2022-08-26T04:56:33.238Z,44.95
2022-08-26T04:59:03.168Z,48.70
2022-08-26T05:01:34.309Z,47.90
2022-08-26T05:04:08.134Z,42.78
2022-08-26T05:06:37.212Z,46.38
2022-08-26T05:09:05.162Z,47.67
2022-08-26T05:11:37.626Z,45.67
2022-08-26T05:14:06.257Z,44.05
2022-08-26T05:16:34.079Z,38.55
2022-08-26T05:19:01.740Z,40.35
2022-08-26T05:21:29.887Z,36.65
2022-08-26T05:24:00.658Z,46.13
2022-08-26T05:26:30.290Z,42.08
2022-08-26T05:29:04.669Z,43.67
2022-08-26T05:31:34.801Z,42.65
2022-08-26T05:34:05.033Z,34.95
2022-08-26T05:36:34.975Z,30.73
2022-08-26T05:39:05.635Z,38.00
2022-08-26T05:41:38.300Z,34.97
2022-08-26T05:44:19.148Z,37.28
2022-08-26T05:46:47.388Z,39.22
2022-08-26T05:49:16.547Z,34.33
2022-08-26T05:51:47.672Z,40.05
2022-08-26T05:54:21.367Z,37.75
2022-08-26T05:56:53.953Z,30.58
2022-08-26T05:59:28.211Z,36.22
2022-08-26T06:01:57.646Z,27.73
2022-08-26T06:04:28.405Z,22.27
2022-08-26T06:07:06.481Z,26.90
2022-08-26T06:09:38.603Z,28.67
2022-08-26T06:12:08.233Z,27.23
2022-08-26T06:14:36.257Z,20.42
2022-08-26T06:17:04.528Z,21.30
2022-08-26T06:19:34.595Z,26.23
2022-08-26T06:22:23.287Z,33.47
2022-08-26T06:25:13.473Z,25.33
2022-08-26T06:27:43.777Z,37.25
2022-08-26T06:30:14.790Z,36.53
2022-08-26T06:32:48.477Z,49.97
2022-08-26T06:35:28.528Z,48.78
2022-08-26T06:38:06.754Z,51.20
2022-08-26T06:40:48.799Z,36.63
2022-08-26T06:43:20.482Z,24.42
2022-08-26T06:46:00.708Z,26.17
2022-08-26T06:48:28.403Z,25.13
2022-08-26T06:51:25.691Z,24.88
2022-08-26T06:53:55.519Z,32.05
2022-08-26T06:56:25.866Z,31.88
2022-08-26T06:58:53.595Z,24.42
2022-08-26T07:01:27.213Z,31.38
2022-08-26T07:03:59.531Z,28.20
2022-08-26T07:06:40.761Z,37.58
2022-08-26T07:09:10.135Z,20.70
2022-08-26T07:11:39.344Z,22.55
2022-08-26T07:14:09.456Z,17.45
2022-08-26T07:16:39.041Z,15.30
2022-08-26T07:19:11.214Z,12.30
2022-08-26T07:22:09.079Z,10.38
2022-08-26T07:24:45.342Z,16.65
2022-08-26T07:27:15.601Z,15.05
2022-08-26T07:29:43.861Z,10.00
2022-08-26T07:32:13.523Z,12.48
2022-08-26T07:34:41.922Z,11.60
2022-08-26T07:37:14.049Z,17.48
2022-08-26T07:39:50.349Z,15.43
2022-08-26T07:42:20.083Z,14.07
2022-08-26T07:44:56.860Z,10.27
2022-08-26T07:47:26.213Z,15.60
2022-08-26T07:49:56.219Z,10.18
2022-08-26T07:52:31.466Z,13.60
2022-08-26T07:55:04.991Z,15.55
2022-08-26T07:57:37.199Z,13.18
2022-08-26T08:02:45.451Z,11.82
2022-08-26T08:05:17.063Z,14.77
2022-08-26T08:10:25.173Z,10.70
2022-08-26T08:12:56.743Z,16.08
2022-08-26T08:15:35.154Z,20.30
2022-08-26T08:18:15.856Z,15.18
2022-08-26T08:20:54.679Z,21.95
2022-08-26T08:23:32.989Z,23.13
2022-08-26T08:26:13.673Z,20.40
2022-08-26T08:29:00.058Z,24.05
2022-08-26T08:34:21.461Z,18.63
2022-08-26T08:36:53.340Z,16.13
2022-08-26T08:39:21.956Z,19.38
2022-08-26T08:42:16.355Z,15.68
2022-08-26T08:44:52.024Z,14.63
2022-08-26T08:47:45.218Z,14.20
2022-08-26T08:50:38.876Z,10.57
2022-08-26T08:53:17.824Z,11.77
2022-08-26T08:56:31.169Z,11.00
2022-08-26T08:59:55.326Z,12.82
2022-08-26T09:02:41.164Z,16.00
2022-08-26T09:05:21.494Z,11.48
2022-08-26T09:08:20.094Z,13.43
2022-08-26T09:11:27.657Z,18.95
2022-08-26T09:14:37.334Z,9.23
2022-08-26T09:18:02.140Z,8.70
2022-08-26T09:20:58.992Z,11.93
2022-08-26T09:23:57.924Z,14.13
2022-08-26T09:26:50.508Z,9.07
2022-08-26T09:29:41.923Z,12.32
2022-08-26T09:32:28.233Z,10.63
2022-08-26T09:35:03.669Z,15.32
2022-08-26T09:37:55.431Z,10.32
2022-08-26T09:40:36.781Z,14.27
2022-08-26T09:43:23.198Z,18.42
2022-08-26T09:45:59.416Z,17.67
2022-08-26T09:51:35.737Z,18.35
2022-08-26T09:56:40.337Z,19.75
2022-08-26T09:59:15.117Z,16.42
2022-08-26T10:01:54.860Z,8.93
2022-08-26T10:04:34.291Z,14.75
2022-08-26T10:07:11.293Z,13.10
2022-08-26T10:09:54.104Z,10.75
2022-08-26T10:12:25.743Z,12.63
2022-08-26T10:15:04.113Z,16.50
2022-08-26T10:17:38.294Z,9.63
2022-08-26T10:20:26.294Z,13.05
2022-08-26T10:23:03.117Z,11.68
2022-08-26T10:25:59.363Z,10.48
2022-08-26T10:28:44.389Z,10.85
2022-08-26T10:31:40.345Z,11.48
2022-08-26T10:34:12.311Z,14.02
2022-08-26T10:37:13.773Z,10.57
2022-08-26T10:40:07.568Z,11.40
2022-08-26T10:45:30.484Z,10.82
2022-08-26T10:48:08.757Z,10.50
2022-08-26T10:50:47.441Z,11.05
2022-08-26T10:53:32.737Z,13.10
2022-08-26T10:56:42.219Z,15.20
2022-08-26T10:59:34.174Z,15.77
2022-08-26T11:02:15.173Z,10.20
2022-08-26T11:04:49.132Z,9.75
2022-08-26T11:07:33.579Z,13.32
2022-08-26T11:10:08.719Z,10.30
2022-08-26T11:12:39.010Z,11.77
2022-08-26T11:15:14.505Z,9.13
2022-08-26T11:17:46.124Z,11.38
2022-08-26T11:20:35.188Z,8.75
2022-08-26T11:23:26.522Z,11.27
2022-08-26T11:25:57.514Z,12.40
2022-08-26T11:28:48.974Z,9.40
2022-08-26T11:31:20.992Z,14.15
2022-08-26T11:33:57.305Z,15.40
2022-08-26T11:36:46.326Z,24.02
2022-08-26T11:39:24.414Z,12.65
2022-08-26T11:41:55.811Z,12.10
2022-08-26T11:44:41.481Z,10.35
2022-08-26T11:47:27.041Z,10.75
2022-08-26T11:50:19.939Z,7.65
2022-08-26T11:52:57.342Z,24.25
2022-08-26T11:55:26.789Z,16.27
2022-08-26T11:58:01.131Z,11.00
2022-08-26T12:00:36.291Z,9.80
2022-08-26T12:03:17.420Z,12.93
2022-08-26T12:05:49.606Z,9.85
2022-08-26T12:08:24.652Z,9.57
2022-08-26T12:11:25.701Z,10.63
2022-08-26T12:14:05.850Z,7.50
2022-08-26T12:16:40.161Z,8.70
2022-08-26T12:19:27.482Z,13.25
2022-08-26T12:22:17.451Z,9.75
2022-08-26T12:24:52.788Z,7.63
2022-08-26T12:27:32.022Z,11.18
2022-08-26T12:30:20.439Z,11.25
2022-08-26T12:32:57.539Z,10.95
2022-08-26T12:35:30.848Z,20.13
2022-08-26T12:37:59.972Z,12.45
2022-08-26T12:40:50.404Z,14.75
2022-08-26T12:43:42.642Z,10.85
2022-08-26T12:46:29.870Z,10.93
2022-08-26T12:49:01.489Z,11.70
2022-08-26T12:51:33.625Z,10.85
2022-08-26T12:54:08.265Z,13.10
2022-08-26T12:56:41.840Z,13.57
2022-08-26T12:59:26.720Z,16.23
2022-08-26T13:01:56.878Z,14.68
2022-08-26T13:04:41.736Z,12.20
2022-08-26T13:07:25.227Z,11.02
2022-08-26T13:09:59.910Z,12.25
2022-08-26T13:12:43.812Z,10.23
2022-08-26T13:15:11.276Z,11.73
2022-08-26T13:17:39.518Z,11.95
2022-08-26T13:20:38.349Z,12.50
2022-08-26T13:22:59.932Z,13.65
2022-08-26T13:25:27.650Z,9.20
2022-08-26T13:27:57.304Z,11.80
2022-08-26T13:30:28.093Z,13.45
2022-08-26T13:33:02.303Z,9.63
2022-08-26T13:35:34.122Z,11.70
2022-08-26T13:38:02.206Z,14.02
2022-08-26T13:40:34.297Z,8.98
2022-08-26T13:43:04.160Z,10.40
2022-08-26T13:45:33.040Z,10.48
2022-08-26T13:48:06.349Z,10.02
2022-08-26T13:50:35.707Z,11.38
2022-08-26T13:53:03.118Z,9.05
2022-08-26T13:55:30.657Z,15.40
2022-08-26T13:57:58.674Z,9.68
2022-08-26T14:02:56.858Z,16.67
2022-08-26T14:05:24.251Z,9.27
2022-08-26T14:07:52.582Z,8.63
2022-08-26T14:10:20.265Z,9.35
2022-08-26T14:12:49.615Z,12.93
2022-08-26T14:15:18.879Z,12.57
2022-08-26T14:17:48.952Z,14.65
2022-08-26T14:20:21.441Z,11.23
2022-08-26T14:23:12.558Z,17.00
2022-08-26T14:25:36.342Z,10.02
2022-08-26T14:28:03.776Z,12.60
2022-08-26T14:30:32.354Z,13.98
2022-08-26T14:32:59.851Z,13.75
2022-08-26T14:35:29.793Z,11.30
2022-08-26T14:37:57.892Z,20.83
2022-08-26T14:40:29.705Z,15.98
2022-08-26T14:42:58.896Z,14.50
2022-08-26T14:45:28.563Z,13.55
2022-08-26T14:47:57.159Z,17.80
2022-08-26T14:50:26.927Z,14.52
2022-08-26T14:53:12.650Z,20.05
2022-08-26T14:55:42.229Z,12.02
2022-08-26T14:58:10.271Z,12.55
2022-08-26T15:00:38.539Z,18.88
2022-08-26T15:03:06.474Z,14.25
2022-08-26T15:05:34.448Z,12.27
2022-08-26T15:08:04.791Z,11.05
2022-08-26T15:10:34.399Z,10.82
2022-08-26T15:13:02.321Z,16.65
2022-08-26T15:15:29.984Z,12.07
2022-08-26T15:17:57.579Z,12.70
2022-08-26T15:20:25.077Z,15.20
2022-08-26T15:22:52.386Z,17.75
2022-08-26T15:25:20.957Z,14.40
2022-08-26T15:27:48.844Z,10.30
2022-08-26T15:30:16.902Z,17.15
2022-08-26T15:32:44.423Z,13.65
2022-08-26T15:35:11.936Z,16.70
2022-08-26T15:37:39.792Z,29.58
2022-08-26T15:40:09.553Z,13.48
2022-08-26T15:42:38.195Z,24.60
2022-08-26T15:45:05.700Z,18.73
2022-08-26T15:47:35.477Z,17.33
2022-08-26T15:50:25.508Z,20.17
2022-08-26T15:52:52.916Z,24.38
2022-08-26T15:55:23.637Z,19.75
2022-08-26T15:57:50.979Z,22.45
2022-08-26T16:00:18.652Z,16.58
2022-08-26T16:02:46.060Z,19.30
2022-08-26T16:05:13.632Z,22.98
2022-08-26T16:07:41.025Z,21.55
2022-08-26T16:10:08.848Z,20.45
2022-08-26T16:12:37.460Z,30.17
2022-08-26T16:15:05.489Z,32.70
2022-08-26T16:17:32.905Z,30.38
2022-08-26T16:20:00.894Z,24.70
2022-08-26T16:22:28.582Z,28.40
2022-08-26T16:24:59.220Z,18.60
2022-08-26T16:29:54.787Z,37.15
2022-08-26T16:32:22.487Z,21.83
2022-08-26T16:34:56.235Z,19.10
2022-08-26T16:37:24.302Z,26.10
2022-08-26T16:39:51.838Z,18.98
2022-08-26T16:42:19.703Z,16.95
2022-08-26T16:44:47.614Z,27.48
2022-08-26T16:47:16.689Z,18.38
2022-08-26T16:49:46.786Z,31.92
2022-08-26T16:52:18.040Z,22.58
2022-08-26T16:54:45.926Z,25.60
2022-08-26T16:57:13.843Z,24.13
2022-08-26T16:59:41.746Z,21.80
2022-08-26T17:02:12.069Z,26.98
2022-08-26T17:04:40.128Z,19.73
2022-08-26T17:07:07.869Z,25.98
2022-08-26T17:09:35.322Z,31.45
2022-08-26T17:12:03.125Z,26.42
2022-08-26T17:14:30.395Z,28.20
2022-08-26T17:16:57.902Z,27.17
2022-08-26T17:19:25.636Z,25.30
2022-08-26T17:21:53.341Z,29.02
2022-08-26T17:24:21.061Z,34.55
2022-08-26T17:26:53.457Z,31.63
2022-08-26T17:29:23.953Z,31.83
2022-08-26T17:31:51.462Z,31.65
2022-08-26T17:34:19.202Z,58.72
2022-08-26T17:36:46.412Z,30.48
2022-08-26T17:39:13.617Z,51.25
2022-08-26T17:41:41.311Z,41.05
2022-08-26T17:44:08.676Z,35.53
2022-08-26T17:46:38.872Z,38.97
2022-08-26T17:49:06.716Z,39.40
2022-08-26T17:51:34.278Z,44.63
2022-08-26T17:54:01.931Z,53.05
2022-08-26T17:56:29.837Z,34.35
2022-08-26T17:59:02.510Z,38.42
2022-08-26T18:01:31.892Z,41.67
2022-08-26T18:04:00.619Z,34.35
2022-08-26T18:06:32.591Z,46.67
2022-08-26T18:09:01.060Z,50.58
2022-08-26T18:11:29.551Z,43.20
2022-08-26T18:13:56.912Z,45.45
2022-08-26T18:16:24.639Z,39.45
2022-08-26T18:18:53.610Z,35.65
2022-08-26T18:21:24.238Z,37.30
2022-08-26T18:23:52.209Z,50.78
2022-08-26T18:26:27.459Z,49.55
2022-08-26T18:28:57.999Z,40.10
2022-08-26T18:31:26.565Z,33.88
2022-08-26T18:33:54.337Z,39.55
2022-08-26T18:36:30.895Z,43.40
2022-08-26T18:38:59.822Z,39.40
2022-08-26T18:41:30.888Z,36.80
2022-08-26T18:44:18.828Z,38.20
2022-08-26T18:46:47.485Z,41.00
2022-08-26T18:49:53.443Z,44.45
2022-08-26T18:52:41.374Z,47.42
2022-08-26T18:55:08.647Z,39.10
2022-08-26T18:57:37.392Z,47.17
2022-08-26T19:00:09.436Z,47.35
2022-08-26T19:02:39.788Z,41.20
2022-08-26T19:05:10.460Z,38.60
2022-08-26T19:07:39.710Z,55.92
2022-08-26T19:10:07.799Z,46.38
2022-08-26T19:12:37.588Z,50.95
2022-08-26T19:15:07.849Z,49.95
2022-08-26T19:17:35.362Z,43.85
2022-08-26T19:20:08.547Z,47.00
2022-08-26T19:22:54.346Z,44.25
2022-08-26T19:25:21.846Z,50.58
2022-08-26T19:27:49.214Z,45.00
2022-08-26T19:30:24.660Z,46.95
2022-08-26T19:33:21.283Z,44.00
2022-08-26T19:36:06.324Z,45.78
2022-08-26T19:38:38.259Z,44.90
2022-08-26T19:41:23.009Z,41.30
2022-08-26T19:43:55.982Z,51.67
2022-08-26T19:49:08.505Z,48.13
2022-08-26T19:51:53.194Z,53.28
2022-08-26T20:16:26.338Z,60.75
2022-08-26T20:19:05.377Z,53.17
2022-08-26T20:21:49.024Z,47.20
2022-08-26T20:25:15.166Z,42.88
2022-08-26T20:27:45.356Z,52.53
2022-08-26T20:30:40.693Z,44.90
2022-08-26T20:33:46.347Z,46.78
2022-08-26T20:36:19.803Z,45.35
2022-08-26T20:39:06.590Z,57.80
2022-08-26T20:46:18.777Z,100.85
